createdAt,value
2018-08-03T00:01:04.925Z,20.60
2018-08-03T00:03:35.194Z,20.70
2018-08-03T00:06:05.514Z,20.60
2018-08-03T00:08:35.857Z,20.60
2018-08-03T00:11:06.197Z,20.50
2018-08-03T00:13:36.521Z,20.50
2018-08-03T00:16:06.862Z,20.50
2018-08-03T00:18:37.218Z,20.50
2018-08-03T00:21:07.769Z,20.50
2018-08-03T00:23:38.211Z,20.50
2018-08-03T00:26:08.503Z,20.50
2018-08-03T00:28:38.886Z,20.40
2018-08-03T00:31:09.328Z,20.40
2018-08-03T00:33:39.597Z,20.40
2018-08-03T00:36:09.880Z,20.40
2018-08-03T00:38:40.173Z,20.40
2018-08-03T00:41:10.477Z,20.40
2018-08-03T00:43:40.802Z,20.30
2018-08-03T00:46:11.096Z,20.30
2018-08-03T00:48:41.408Z,20.30
2018-08-03T00:51:11.722Z,20.30
2018-08-03T00:53:42.018Z,20.30
2018-08-03T00:56:12.362Z,20.30
2018-08-03T00:58:42.655Z,20.30
2018-08-03T01:01:12.946Z,20.30
2018-08-03T01:03:43.256Z,20.20
2018-08-03T01:06:13.536Z,20.20
2018-08-03T01:08:43.826Z,20.20
2018-08-03T01:11:14.072Z,20.20
2018-08-03T01:13:44.357Z,20.10
2018-08-03T01:16:14.698Z,20.10
2018-08-03T01:18:44.978Z,20.10
2018-08-03T01:21:15.256Z,20.10
2018-08-03T01:23:45.602Z,20.10
2018-08-03T01:26:15.905Z,20.10
2018-08-03T01:28:46.200Z,20.00
2018-08-03T01:31:16.462Z,20.00
2018-08-03T01:33:46.755Z,19.90
2018-08-03T01:36:17.018Z,19.90
2018-08-03T01:38:47.309Z,19.90
2018-08-03T01:41:17.572Z,19.80
2018-08-03T01:43:47.812Z,19.80
2018-08-03T01:46:18.140Z,19.80
2018-08-03T01:48:48.392Z,19.80
2018-08-03T01:51:18.634Z,19.80
2018-08-03T01:53:48.908Z,19.70
2018-08-03T01:56:19.159Z,19.70
2018-08-03T01:58:49.429Z,19.60
2018-08-03T02:01:19.685Z,19.70
2018-08-03T02:03:49.971Z,19.60
2018-08-03T02:06:20.194Z,19.60
2018-08-03T02:08:50.496Z,19.60
2018-08-03T02:11:20.763Z,19.50
2018-08-03T02:13:51.403Z,19.60
2018-08-03T02:16:21.720Z,19.50
2018-08-03T02:18:51.988Z,19.50
2018-08-03T02:21:22.269Z,19.50
2018-08-03T02:23:52.578Z,19.50
2018-08-03T02:26:22.818Z,19.40
2018-08-03T02:28:53.358Z,19.40
2018-08-03T02:31:23.648Z,19.40
2018-08-03T02:33:53.905Z,19.40
2018-08-03T02:36:24.199Z,19.40
2018-08-03T02:38:54.480Z,19.40
2018-08-03T02:41:24.761Z,19.40
2018-08-03T02:43:55.020Z,19.40
2018-08-03T02:46:25.296Z,19.30
2018-08-03T02:48:55.577Z,19.30
2018-08-03T02:51:25.818Z,19.30
2018-08-03T02:53:56.110Z,19.30
2018-08-03T02:56:26.360Z,19.30
2018-08-03T02:58:56.653Z,19.30
2018-08-03T03:01:26.892Z,19.30
2018-08-03T03:03:57.218Z,19.20
2018-08-03T03:06:27.492Z,19.20
2018-08-03T03:08:57.789Z,19.20
2018-08-03T03:11:28.053Z,19.10
2018-08-03T03:13:58.379Z,19.10
2018-08-03T03:16:28.632Z,19.10
2018-08-03T03:18:58.896Z,19.10
2018-08-03T03:21:29.155Z,19.10
2018-08-03T03:23:59.458Z,19.10
2018-08-03T03:26:29.738Z,19.10
2018-08-03T03:29:00.040Z,19.10
2018-08-03T03:31:30.416Z,19.10
2018-08-03T03:34:00.701Z,19.10
2018-08-03T03:36:30.978Z,19.00
2018-08-03T03:39:01.205Z,19.00
2018-08-03T03:41:31.495Z,19.00
2018-08-03T03:44:01.768Z,19.00
2018-08-03T03:46:32.032Z,19.00
2018-08-03T03:49:02.263Z,19.00
2018-08-03T03:51:32.587Z,19.00
2018-08-03T03:54:03.120Z,19.00
2018-08-03T03:56:33.385Z,19.00
2018-08-03T03:59:03.629Z,19.00
2018-08-03T04:01:33.936Z,19.00
2018-08-03T04:04:04.206Z,19.10
2018-08-03T04:06:34.499Z,19.10
2018-08-03T04:09:08.401Z,19.10
2018-08-03T04:11:38.694Z,19.10
2018-08-03T04:14:09.086Z,19.10
2018-08-03T04:16:39.532Z,19.10
2018-08-03T04:19:09.793Z,19.10
2018-08-03T04:21:40.119Z,19.10
2018-08-03T04:24:10.400Z,19.10
2018-08-03T04:26:40.692Z,19.20
2018-08-03T04:29:10.957Z,19.20
2018-08-03T04:31:41.200Z,19.20
2018-08-03T04:34:11.517Z,19.30
2018-08-03T04:36:41.785Z,19.30
2018-08-03T04:39:12.027Z,19.40
2018-08-03T04:41:42.304Z,19.40
2018-08-03T04:44:12.565Z,19.40
2018-08-03T04:46:42.884Z,19.40
2018-08-03T04:49:13.176Z,19.50
2018-08-03T04:51:43.508Z,19.50
2018-08-03T04:54:13.809Z,19.50
2018-08-03T04:56:44.116Z,19.60
2018-08-03T04:59:14.390Z,19.70
2018-08-03T05:01:44.689Z,19.60
2018-08-03T05:04:14.962Z,19.70
2018-08-03T05:06:45.289Z,19.70
2018-08-03T05:09:15.643Z,19.80
2018-08-03T05:11:45.877Z,19.80
2018-08-03T05:14:16.180Z,19.90
2018-08-03T05:16:46.466Z,19.90
2018-08-03T05:19:16.779Z,20.00
2018-08-03T05:21:47.053Z,20.10
2018-08-03T05:24:17.460Z,20.10
2018-08-03T05:26:47.677Z,20.20
2018-08-03T05:29:17.963Z,20.20
2018-08-03T05:31:48.252Z,20.30
2018-08-03T05:34:18.570Z,20.30
2018-08-03T05:36:48.846Z,20.40
2018-08-03T05:39:19.180Z,20.50
2018-08-03T05:41:49.460Z,20.50
2018-08-03T05:44:19.778Z,20.60
2018-08-03T05:46:50.048Z,20.60
2018-08-03T05:49:20.344Z,20.70
2018-08-03T05:51:50.630Z,20.70
2018-08-03T05:54:20.990Z,20.80
2018-08-03T05:56:51.285Z,20.80
2018-08-03T05:59:21.622Z,20.90
2018-08-03T06:01:51.894Z,20.90
2018-08-03T06:04:22.257Z,21.00
2018-08-03T06:06:52.598Z,21.10
2018-08-03T06:09:22.841Z,21.10
2018-08-03T06:11:53.160Z,21.10
2018-08-03T06:14:23.528Z,21.20
2018-08-03T06:16:53.849Z,21.30
2018-08-03T06:19:24.101Z,21.40
2018-08-03T06:21:54.446Z,21.50
2018-08-03T06:24:24.721Z,21.60
2018-08-03T06:26:55.035Z,21.60
2018-08-03T06:29:25.308Z,21.70
2018-08-03T06:31:55.682Z,21.80
2018-08-03T06:34:26.089Z,21.80
2018-08-03T06:36:56.373Z,21.90
2018-08-03T06:39:26.660Z,22.00
2018-08-03T06:41:56.932Z,22.10
2018-08-03T06:44:27.252Z,22.20
2018-08-03T06:46:57.561Z,22.30
2018-08-03T06:49:27.847Z,22.40
2018-08-03T06:51:58.150Z,22.50
2018-08-03T06:54:28.540Z,22.60
2018-08-03T06:56:58.818Z,22.60
2018-08-03T06:59:29.122Z,22.70
2018-08-03T07:01:59.449Z,22.80
2018-08-03T07:04:29.781Z,22.90
2018-08-03T07:07:00.013Z,23.00
2018-08-03T07:09:30.335Z,23.10
2018-08-03T07:12:00.690Z,23.10
2018-08-03T07:14:31.025Z,23.30
2018-08-03T07:17:01.511Z,23.30
2018-08-03T07:19:31.765Z,23.40
2018-08-03T07:22:02.085Z,23.50
2018-08-03T07:24:32.408Z,23.60
2018-08-03T07:27:02.689Z,23.70
2018-08-03T07:29:33.002Z,23.70
2018-08-03T07:32:03.422Z,23.80
2018-08-03T07:34:33.738Z,23.90
2018-08-03T07:37:04.076Z,24.00
2018-08-03T07:39:34.437Z,24.10
2018-08-03T07:42:04.818Z,24.20
2018-08-03T07:44:35.189Z,24.30
2018-08-03T07:47:05.444Z,24.40
2018-08-03T07:49:35.750Z,24.50
2018-08-03T07:52:06.128Z,24.60
2018-08-03T07:54:36.481Z,24.70
2018-08-03T07:57:06.778Z,24.80
2018-08-03T07:59:37.085Z,24.90
2018-08-03T08:02:07.472Z,25.10
2018-08-03T08:04:37.722Z,25.20
2018-08-03T08:07:08.006Z,25.30
2018-08-03T08:09:38.372Z,25.30
2018-08-03T08:12:08.743Z,25.50
2018-08-03T08:14:39.022Z,25.50
2018-08-03T08:17:09.389Z,25.70
2018-08-03T08:19:39.669Z,25.80
2018-08-03T08:22:10.000Z,25.80
2018-08-03T08:24:40.388Z,25.90
2018-08-03T08:27:10.761Z,25.80
2018-08-03T08:29:41.088Z,26.00
2018-08-03T08:32:11.419Z,26.10
2018-08-03T08:34:41.700Z,26.20
2018-08-03T08:37:12.035Z,26.20
2018-08-03T08:39:42.320Z,26.20
2018-08-03T08:42:12.604Z,26.40
2018-08-03T08:44:42.960Z,26.40
2018-08-03T08:47:13.281Z,26.50
2018-08-03T08:49:43.605Z,26.70
2018-08-03T08:52:13.888Z,26.80
2018-08-03T08:54:44.277Z,26.80
2018-08-03T08:57:14.577Z,27.00
2018-08-03T08:59:45.195Z,27.10
2018-08-03T09:02:15.533Z,27.10
2018-08-03T09:04:45.843Z,27.20
2018-08-03T09:07:16.133Z,27.30
2018-08-03T09:09:46.431Z,27.40
2018-08-03T09:12:16.713Z,27.60
2018-08-03T09:14:47.028Z,27.60
2018-08-03T09:17:17.461Z,27.70
2018-08-03T09:19:47.788Z,27.80
2018-08-03T09:22:18.116Z,27.80
2018-08-03T09:24:48.536Z,27.90
2018-08-03T09:27:18.831Z,27.90
2018-08-03T09:29:49.181Z,28.00
2018-08-03T09:32:19.488Z,28.00
2018-08-03T09:34:49.824Z,28.10
2018-08-03T09:37:20.243Z,28.20
2018-08-03T09:39:50.525Z,28.20
2018-08-03T09:42:20.825Z,28.20
2018-08-03T09:44:51.119Z,28.30
2018-08-03T09:47:21.468Z,28.40
2018-08-03T09:49:51.780Z,28.50
2018-08-03T09:52:22.100Z,28.50
2018-08-03T09:54:52.457Z,28.60
2018-08-03T09:57:22.730Z,28.60
2018-08-03T09:59:53.021Z,28.60
2018-08-03T10:02:23.309Z,28.70
2018-08-03T10:04:53.649Z,28.90
2018-08-03T10:07:24.083Z,29.20
2018-08-03T10:09:54.462Z,29.50
2018-08-03T10:12:24.772Z,29.80
2018-08-03T10:14:55.105Z,30.00
2018-08-03T10:17:25.424Z,30.30
2018-08-03T10:19:55.772Z,30.60
2018-08-03T10:22:26.198Z,31.00
2018-08-03T10:24:56.480Z,31.30
2018-08-03T10:27:26.762Z,31.70
2018-08-03T10:29:57.048Z,32.00
2018-08-03T10:32:27.313Z,32.30
2018-08-03T10:34:57.726Z,32.70
2018-08-03T10:37:28.065Z,33.10
2018-08-03T10:39:58.393Z,33.30
2018-08-03T10:42:28.724Z,33.50
2018-08-03T10:44:59.065Z,33.60
2018-08-03T10:47:29.378Z,33.60
2018-08-03T10:49:59.656Z,33.80
2018-08-03T10:54:59.891Z,34.20
2018-08-03T10:57:30.201Z,34.20
2018-08-03T11:00:00.805Z,34.50
2018-08-03T11:02:31.237Z,34.80
2018-08-03T11:05:01.537Z,34.90
2018-08-03T11:07:31.832Z,35.10
2018-08-03T11:10:02.196Z,35.20
2018-08-03T11:12:32.448Z,35.30
2018-08-03T11:15:02.816Z,35.10
2018-08-03T11:17:33.165Z,34.70
2018-08-03T11:20:03.514Z,34.40
2018-08-03T11:22:33.944Z,34.70
2018-08-03T11:25:04.328Z,35.10
2018-08-03T11:27:34.725Z,35.60
2018-08-03T11:30:06.197Z,36.10
2018-08-03T11:32:36.732Z,36.70
2018-08-03T11:35:08.397Z,37.10
2018-08-03T11:37:38.683Z,37.30
2018-08-03T11:40:09.689Z,36.80
2018-08-03T11:42:39.966Z,36.50
2018-08-03T11:45:11.221Z,36.40
2018-08-03T11:47:41.556Z,36.40
2018-08-03T11:50:11.899Z,36.20
2018-08-03T11:52:42.245Z,36.00
2018-08-03T11:55:12.565Z,36.40
2018-08-03T11:57:42.871Z,37.00
2018-08-03T12:00:13.504Z,37.50
2018-08-03T12:02:43.832Z,38.20
2018-08-03T12:05:14.085Z,38.60
2018-08-03T12:07:44.430Z,39.10
2018-08-03T12:10:15.122Z,39.60
2018-08-03T12:12:45.466Z,39.90
2018-08-03T12:15:15.785Z,40.10
2018-08-03T12:17:46.115Z,40.10
2018-08-03T12:20:16.341Z,39.70
2018-08-03T12:22:46.662Z,38.80
2018-08-03T12:25:16.951Z,37.90
2018-08-03T12:27:47.258Z,37.40
2018-08-03T12:30:17.593Z,36.70
2018-08-03T12:32:47.872Z,36.00
2018-08-03T12:35:18.196Z,35.60
2018-08-03T12:37:48.485Z,35.40
2018-08-03T12:40:18.751Z,35.40
2018-08-03T12:42:49.048Z,35.00
2018-08-03T12:45:19.325Z,34.60
2018-08-03T12:47:49.698Z,34.20
2018-08-03T12:50:20.022Z,33.70
2018-08-03T12:52:50.393Z,33.40
2018-08-03T12:55:20.658Z,33.80
2018-08-03T12:57:50.981Z,35.20
2018-08-03T13:00:21.278Z,36.70
2018-08-03T13:02:51.625Z,37.90
2018-08-03T13:05:21.910Z,38.50
2018-08-03T13:07:52.428Z,38.20
2018-08-03T13:10:22.595Z,36.90
2018-08-03T13:12:52.884Z,36.10
2018-08-03T13:15:23.184Z,35.20
2018-08-03T13:17:53.469Z,34.70
2018-08-03T13:20:23.777Z,34.30
2018-08-03T13:23:01.277Z,33.80
2018-08-03T13:25:31.914Z,33.60
2018-08-03T13:28:02.227Z,34.30
2018-08-03T13:30:32.644Z,35.00
2018-08-03T13:33:03.022Z,35.60
2018-08-03T13:35:33.309Z,35.80
2018-08-03T13:38:03.645Z,35.90
2018-08-03T13:40:33.900Z,36.00
2018-08-03T13:43:04.253Z,36.20
2018-08-03T13:45:34.580Z,36.10
2018-08-03T13:48:04.864Z,36.30
2018-08-03T13:50:35.165Z,36.60
2018-08-03T13:53:06.056Z,36.40
2018-08-03T13:55:36.301Z,36.20
2018-08-03T13:58:06.652Z,35.80
2018-08-03T14:00:36.962Z,35.30
2018-08-03T14:03:07.579Z,35.20
2018-08-03T14:05:37.872Z,35.20
2018-08-03T14:08:08.164Z,35.30
2018-08-03T14:10:38.501Z,35.10
2018-08-03T14:15:38.737Z,35.00
2018-08-03T14:20:38.922Z,34.70
2018-08-03T14:23:09.211Z,34.80
2018-08-03T14:25:39.517Z,34.90
2018-08-03T14:30:39.712Z,35.00
2018-08-03T14:33:10.055Z,35.00
2018-08-03T14:35:40.360Z,35.00
2018-08-03T14:38:10.703Z,35.10
2018-08-03T14:40:41.029Z,35.00
2018-08-03T14:43:11.272Z,35.00
2018-08-03T14:45:41.615Z,35.10
2018-08-03T14:48:11.904Z,35.10
2018-08-03T14:50:42.225Z,35.20
2018-08-03T14:53:12.482Z,35.40
2018-08-03T14:55:42.829Z,35.40
2018-08-03T14:58:13.191Z,35.60
2018-08-03T15:00:43.870Z,35.70
2018-08-03T15:03:14.246Z,35.90
2018-08-03T15:05:44.527Z,36.20
2018-08-03T15:08:14.904Z,36.50
2018-08-03T15:10:45.307Z,36.60
2018-08-03T15:13:15.654Z,36.80
2018-08-03T15:15:45.997Z,36.90
2018-08-03T15:20:46.259Z,37.30
2018-08-03T15:23:16.503Z,37.30
2018-08-03T15:25:46.802Z,37.40
2018-08-03T15:28:17.167Z,37.60
2018-08-03T15:30:47.508Z,38.00
2018-08-03T15:33:17.840Z,38.50
2018-08-03T15:35:48.133Z,38.70
2018-08-03T15:38:18.696Z,38.90
2018-08-03T15:40:49.103Z,39.30
2018-08-03T15:43:19.375Z,39.40
2018-08-03T15:45:49.728Z,38.90
2018-08-03T15:48:20.046Z,38.90
2018-08-03T15:50:50.342Z,39.20
2018-08-03T15:53:20.635Z,39.40
2018-08-03T15:55:51.011Z,39.50
2018-08-03T15:58:21.391Z,39.10
2018-08-03T16:00:51.709Z,38.10
2018-08-03T16:03:22.045Z,37.20
2018-08-03T16:05:52.352Z,36.30
2018-08-03T16:08:22.627Z,35.40
2018-08-03T16:10:52.961Z,34.70
2018-08-03T16:13:23.249Z,34.20
2018-08-03T16:18:23.469Z,34.60
2018-08-03T16:20:53.793Z,34.30
2018-08-03T16:23:24.068Z,34.00
2018-08-03T16:25:54.618Z,33.70
2018-08-03T16:28:24.969Z,33.50
2018-08-03T16:30:55.294Z,33.40
2018-08-03T16:33:25.564Z,33.10
2018-08-03T16:35:55.864Z,33.20
2018-08-03T16:38:26.270Z,33.90
2018-08-03T16:40:56.657Z,33.90
2018-08-03T16:43:26.998Z,33.50
2018-08-03T16:45:57.333Z,33.10
2018-08-03T16:48:27.969Z,32.70
2018-08-03T16:50:58.325Z,32.40
2018-08-03T16:53:28.753Z,32.10
2018-08-03T16:58:29.010Z,31.60
2018-08-03T17:00:59.328Z,31.40
2018-08-03T17:03:29.654Z,31.00
2018-08-03T17:06:00.009Z,30.50
2018-08-03T17:08:30.345Z,30.30
2018-08-03T17:11:00.668Z,30.10
2018-08-03T17:13:30.989Z,30.10
2018-08-03T17:16:01.254Z,30.00
2018-08-03T17:18:31.604Z,29.90
2018-08-03T17:21:01.923Z,29.90
2018-08-03T17:23:32.227Z,29.80
2018-08-03T17:26:02.561Z,29.70
2018-08-03T17:28:32.854Z,29.50
2018-08-03T17:31:03.128Z,29.30
2018-08-03T17:33:33.450Z,29.10
2018-08-03T17:36:03.767Z,29.00
2018-08-03T17:38:34.073Z,28.90
2018-08-03T17:41:04.373Z,28.80
2018-08-03T17:43:34.693Z,28.60
2018-08-03T17:46:05.514Z,28.60
2018-08-03T17:48:35.851Z,28.40
2018-08-03T17:51:06.257Z,28.30
2018-08-03T17:53:36.581Z,28.10
2018-08-03T17:56:07.134Z,28.00
2018-08-03T17:58:37.417Z,27.90
2018-08-03T18:01:07.805Z,27.70
2018-08-03T18:03:38.081Z,27.60
2018-08-03T18:06:08.380Z,27.50
2018-08-03T18:08:38.751Z,27.30
2018-08-03T18:11:09.223Z,27.20
2018-08-03T18:13:39.912Z,27.00
2018-08-03T18:16:10.833Z,26.90
2018-08-03T18:18:41.199Z,26.80
2018-08-03T18:21:11.542Z,26.70
2018-08-03T18:23:41.872Z,26.50
2018-08-03T18:26:12.194Z,26.40
2018-08-03T18:28:42.486Z,26.30
2018-08-03T18:31:12.795Z,26.20
2018-08-03T18:33:43.122Z,26.10
2018-08-03T18:36:13.448Z,26.00
2018-08-03T18:38:43.777Z,25.90
2018-08-03T18:41:14.068Z,25.80
2018-08-03T18:43:44.358Z,25.70
2018-08-03T18:46:14.754Z,25.60
2018-08-03T18:48:44.957Z,25.50
2018-08-03T18:51:15.278Z,25.40
2018-08-03T18:53:45.590Z,25.30
2018-08-03T18:56:15.949Z,25.30
2018-08-03T18:58:46.260Z,25.30
2018-08-03T19:01:16.588Z,25.10
2018-08-03T19:03:46.911Z,25.10
2018-08-03T19:06:17.248Z,25.00
2018-08-03T19:08:47.513Z,24.90
2018-08-03T19:11:17.896Z,24.80
2018-08-03T19:13:48.214Z,24.70
2018-08-03T19:16:18.533Z,24.70
2018-08-03T19:18:48.913Z,24.70
2018-08-03T19:21:19.205Z,24.60
2018-08-03T19:23:49.516Z,24.60
2018-08-03T19:26:19.852Z,24.50
2018-08-03T19:28:50.193Z,24.50
2018-08-03T19:31:20.525Z,24.50
2018-08-03T19:33:50.820Z,24.40
2018-08-03T19:36:21.136Z,24.40
2018-08-03T19:38:51.417Z,24.30
2018-08-03T19:41:21.968Z,24.20
2018-08-03T19:43:52.233Z,24.20
2018-08-03T19:46:22.581Z,24.20
2018-08-03T19:48:52.861Z,24.20
2018-08-03T19:51:23.204Z,24.10
2018-08-03T19:53:53.518Z,24.00
2018-08-03T19:56:23.901Z,24.00
2018-08-03T19:58:54.522Z,23.90
2018-08-03T20:01:24.814Z,23.90
2018-08-03T20:03:55.253Z,23.80
2018-08-03T20:06:25.517Z,23.80
2018-08-03T20:08:55.945Z,23.80
2018-08-03T20:11:26.246Z,23.80
2018-08-03T20:13:56.667Z,23.90
2018-08-03T20:16:26.839Z,23.90
2018-08-03T20:18:57.145Z,23.90
2018-08-03T20:21:27.453Z,23.80
2018-08-03T20:23:57.800Z,23.80
2018-08-03T20:26:28.215Z,23.80
2018-08-03T20:28:58.518Z,23.80
2018-08-03T20:31:28.939Z,23.80
2018-08-03T20:33:59.251Z,23.70
2018-08-03T20:36:29.565Z,23.70
2018-08-03T20:38:59.844Z,23.70
2018-08-03T20:41:30.916Z,23.60
2018-08-03T20:44:01.200Z,23.60
2018-08-03T20:46:31.438Z,23.60
2018-08-03T20:49:01.695Z,23.50
2018-08-03T20:51:32.068Z,23.40
2018-08-03T20:54:02.326Z,23.40
2018-08-03T20:56:32.680Z,23.30
2018-08-03T20:59:03.051Z,23.30
2018-08-03T21:01:34.276Z,23.40
2018-08-03T21:04:04.549Z,23.40
2018-08-03T21:09:06.991Z,23.40
2018-08-03T21:11:37.409Z,23.30
2018-08-03T21:14:07.836Z,23.30
2018-08-03T21:16:38.594Z,23.20
2018-08-03T21:19:09.009Z,23.20
2018-08-03T21:21:39.318Z,23.10
2018-08-03T21:24:09.935Z,23.10
2018-08-03T21:26:40.261Z,23.00
2018-08-03T21:29:10.534Z,22.90
2018-08-03T21:31:40.878Z,22.90
2018-08-03T21:34:11.128Z,22.90
2018-08-03T21:36:41.440Z,22.80
2018-08-03T21:39:12.522Z,22.80
2018-08-03T21:41:42.813Z,22.70
2018-08-03T21:44:13.101Z,22.70
2018-08-03T21:46:43.399Z,22.70
2018-08-03T21:49:13.682Z,22.60
2018-08-03T21:51:44.032Z,22.60
2018-08-03T21:54:14.348Z,22.60
2018-08-03T21:56:44.637Z,22.60
2018-08-03T21:59:14.987Z,22.50
2018-08-03T22:01:45.297Z,22.50
2018-08-03T22:04:15.607Z,22.50
2018-08-03T22:06:45.905Z,22.40
2018-08-03T22:09:16.353Z,22.40
2018-08-03T22:11:46.647Z,22.30
2018-08-03T22:14:16.985Z,22.30
2018-08-03T22:16:47.290Z,22.30
2018-08-03T22:19:17.592Z,22.20
2018-08-03T22:21:47.873Z,22.20
2018-08-03T22:24:18.271Z,22.20
2018-08-03T22:26:48.641Z,22.20
2018-08-03T22:29:18.944Z,22.10
2018-08-03T22:34:19.160Z,22.10
2018-08-03T22:36:49.438Z,22.10
2018-08-03T22:39:19.932Z,22.10
2018-08-03T22:41:50.655Z,22.10
2018-08-03T22:44:20.925Z,22.10
2018-08-03T22:46:51.216Z,22.00
2018-08-03T22:49:21.485Z,22.00
2018-08-03T22:51:51.746Z,22.00
2018-08-03T22:54:22.173Z,21.80
2018-08-03T22:56:53.557Z,21.80
2018-08-03T22:59:23.924Z,21.80
2018-08-03T23:01:54.189Z,21.70
2018-08-03T23:04:24.462Z,21.80
2018-08-03T23:06:54.800Z,21.70
2018-08-03T23:09:25.157Z,21.70
2018-08-03T23:11:55.473Z,21.40
2018-08-03T23:14:25.771Z,21.30
2018-08-03T23:16:56.832Z,21.20
2018-08-03T23:19:27.310Z,21.10
2018-08-03T23:21:57.590Z,21.20
2018-08-03T23:24:27.981Z,21.30
2018-08-03T23:26:58.351Z,21.30
2018-08-03T23:29:28.780Z,21.30
2018-08-03T23:31:59.124Z,21.40
2018-08-03T23:34:29.469Z,21.40
2018-08-03T23:36:59.794Z,21.40
2018-08-03T23:39:30.131Z,21.40
2018-08-03T23:42:00.829Z,21.30
2018-08-03T23:44:31.205Z,21.20
2018-08-03T23:47:01.633Z,21.20
2018-08-03T23:49:32.014Z,21.00
2018-08-03T23:52:02.294Z,20.90
2018-08-03T23:54:32.834Z,20.90
2018-08-03T23:57:03.138Z,20.80
2018-08-03T23:59:33.492Z,20.80
